createdAt,value
2022-10-22T00:01:31.360Z,80.14
2022-10-22T00:04:35.653Z,80.83
2022-10-22T00:07:38.563Z,80.87
2022-10-22T00:10:42.153Z,81.29
2022-10-22T00:16:47.757Z,81.51
2022-10-22T00:19:50.289Z,81.68
2022-10-22T00:22:53.030Z,82.15
2022-10-22T00:25:55.601Z,82.53
2022-10-22T00:28:58.557Z,83.26
2022-10-22T00:32:01.180Z,83.27
2022-10-22T00:35:04.618Z,83.58
2022-10-22T00:38:07.139Z,83.48
2022-10-22T00:41:09.931Z,83.84
2022-10-22T00:44:50.040Z,83.82
2022-10-22T00:48:04.919Z,83.71
2022-10-22T00:51:08.356Z,83.97
2022-10-22T00:54:11.334Z,84.14
2022-10-22T00:57:13.811Z,84.54
2022-10-22T01:00:16.795Z,84.06
2022-10-22T01:03:19.229Z,83.75
2022-10-22T01:06:28.613Z,83.79
2022-10-22T01:09:41.710Z,84.03
2022-10-22T01:13:23.089Z,84.44
2022-10-22T01:16:35.026Z,84.49
2022-10-22T01:19:40.749Z,84.38
2022-10-22T01:22:59.321Z,84.31
2022-10-22T01:29:35.127Z,84.29
2022-10-22T01:32:46.492Z,84.20
2022-10-22T01:35:49.388Z,84.42
2022-10-22T01:38:52.401Z,84.92
2022-10-22T01:41:55.994Z,85.11
2022-10-22T01:44:58.744Z,84.74
2022-10-22T01:48:22.522Z,84.68
2022-10-22T01:52:03.921Z,85.18
2022-10-22T01:55:29.268Z,85.77
2022-10-22T01:58:41.527Z,87.27
2022-10-22T02:01:58.757Z,87.78
2022-10-22T02:05:09.974Z,87.49
2022-10-22T02:08:35.014Z,88.26
2022-10-22T02:11:38.164Z,88.57
2022-10-22T02:14:43.538Z,88.82
2022-10-22T02:17:47.523Z,89.48
2022-10-22T02:20:50.361Z,89.63
2022-10-22T02:23:53.208Z,89.59
2022-10-22T02:27:05.097Z,89.67
2022-10-22T02:33:28.983Z,89.80
2022-10-22T02:36:32.258Z,89.57
2022-10-22T02:39:35.921Z,89.00
2022-10-22T02:42:39.562Z,89.40
2022-10-22T02:45:42.186Z,88.88
2022-10-22T02:48:44.860Z,88.92
2022-10-22T02:51:47.340Z,89.53
2022-10-22T02:54:50.389Z,88.66
2022-10-22T02:57:52.972Z,88.58
2022-10-22T03:00:55.715Z,88.46
2022-10-22T03:03:58.159Z,88.61
2022-10-22T03:07:00.847Z,88.59
2022-10-22T03:10:04.046Z,88.69
2022-10-22T03:13:06.826Z,88.92
2022-10-22T03:16:09.356Z,89.36
2022-10-22T03:19:12.356Z,89.21
2022-10-22T03:22:25.000Z,89.44
2022-10-22T03:25:28.554Z,89.43
2022-10-22T03:28:31.615Z,89.59
2022-10-22T03:31:34.355Z,89.16
2022-10-22T03:34:36.957Z,89.70
2022-10-22T03:37:40.195Z,90.20
2022-10-22T03:40:43.886Z,90.15
2022-10-22T03:43:50.121Z,89.61
2022-10-22T03:46:52.576Z,89.65
2022-10-22T03:49:55.324Z,89.88
2022-10-22T03:52:58.277Z,89.75
2022-10-22T03:56:01.050Z,89.99
2022-10-22T03:59:03.646Z,90.48
2022-10-22T04:02:06.477Z,90.40
2022-10-22T04:05:09.372Z,90.11
2022-10-22T04:08:15.566Z,90.16
2022-10-22T04:11:18.378Z,90.23
2022-10-22T04:14:20.894Z,90.26
2022-10-22T04:17:23.653Z,90.46
2022-10-22T04:20:26.336Z,90.58
2022-10-22T04:23:30.695Z,90.89
2022-10-22T04:26:33.198Z,91.17
2022-10-22T04:29:35.956Z,91.41
2022-10-22T04:32:38.393Z,91.83
2022-10-22T04:35:41.145Z,91.88
2022-10-22T04:38:45.138Z,92.10
2022-10-22T04:41:47.865Z,92.06
2022-10-22T04:44:50.321Z,92.28
2022-10-22T04:47:53.056Z,92.25
2022-10-22T04:50:57.779Z,92.15
2022-10-22T04:54:00.593Z,92.05
2022-10-22T04:57:03.217Z,92.08
2022-10-22T05:00:06.655Z,92.14
2022-10-22T05:03:09.082Z,92.05
2022-10-22T05:09:21.137Z,91.86
2022-10-22T05:12:24.092Z,91.72
2022-10-22T05:15:26.554Z,92.46
2022-10-22T05:18:29.317Z,91.91
2022-10-22T05:21:31.859Z,92.01
2022-10-22T05:24:37.177Z,92.18
2022-10-22T05:27:39.948Z,92.24
2022-10-22T05:30:42.959Z,92.55
2022-10-22T05:33:45.762Z,91.96
2022-10-22T05:36:48.535Z,92.23
2022-10-22T05:40:01.677Z,92.46
2022-10-22T05:43:13.756Z,92.39
2022-10-22T05:46:22.725Z,92.10
2022-10-22T05:49:25.836Z,92.05
2022-10-22T05:52:28.303Z,92.43
2022-10-22T05:55:31.168Z,92.98
2022-10-22T05:58:34.681Z,92.65
2022-10-22T06:01:40.110Z,91.79
2022-10-22T06:04:42.840Z,91.45
2022-10-22T06:07:45.396Z,91.19
2022-10-22T06:10:48.123Z,90.91
2022-10-22T06:13:51.056Z,90.50
2022-10-22T06:16:54.334Z,90.10
2022-10-22T06:19:56.850Z,89.58
2022-10-22T06:22:59.614Z,89.11
2022-10-22T06:26:02.281Z,89.05
2022-10-22T06:29:05.400Z,88.59
2022-10-22T06:32:07.836Z,88.47
2022-10-22T06:35:10.610Z,87.21
2022-10-22T06:38:13.043Z,86.00
2022-10-22T06:41:16.501Z,84.72
2022-10-22T06:44:19.844Z,83.57
2022-10-22T06:47:22.572Z,82.34
2022-10-22T06:50:25.008Z,79.33
2022-10-22T06:53:27.814Z,74.13
2022-10-22T06:56:30.318Z,70.51
2022-10-22T06:59:33.410Z,66.31
2022-10-22T07:02:36.152Z,62.96
2022-10-22T07:05:38.953Z,59.96
2022-10-22T07:08:42.477Z,58.36
2022-10-22T07:11:46.103Z,57.54
2022-10-22T07:14:49.256Z,57.16
2022-10-22T07:17:51.991Z,57.27
2022-10-22T07:20:54.424Z,56.54
2022-10-22T07:23:57.731Z,56.81
2022-10-22T07:27:00.261Z,60.87
2022-10-22T07:30:04.139Z,63.50
2022-10-22T07:33:06.678Z,65.30
2022-10-22T07:36:12.104Z,66.64
2022-10-22T07:39:14.808Z,67.53
2022-10-22T07:42:17.573Z,67.82
2022-10-22T07:45:20.097Z,66.34
2022-10-22T07:48:23.401Z,67.07
2022-10-22T07:51:25.899Z,67.33
2022-10-22T07:54:28.733Z,68.84
2022-10-22T07:57:31.966Z,68.93
2022-10-22T08:00:34.797Z,70.37
2022-10-22T08:03:37.687Z,70.59
2022-10-22T08:06:43.395Z,71.29
2022-10-22T08:09:48.459Z,71.74
2022-10-22T08:12:50.893Z,71.73
2022-10-22T08:15:57.253Z,71.74
2022-10-22T08:19:00.269Z,72.83
2022-10-22T08:22:03.043Z,72.12
2022-10-22T08:25:06.087Z,72.94
2022-10-22T08:28:08.796Z,73.67
2022-10-22T08:31:11.678Z,73.21
2022-10-22T08:34:14.403Z,73.54
2022-10-22T08:37:17.821Z,72.99
2022-10-22T08:40:26.470Z,73.36
2022-10-22T08:43:34.853Z,74.20
2022-10-22T08:47:00.012Z,74.48
2022-10-22T08:50:03.221Z,72.87
2022-10-22T08:53:11.448Z,72.64
2022-10-22T08:56:15.063Z,72.53
2022-10-22T08:59:24.022Z,72.62
2022-10-22T09:02:35.440Z,72.29
2022-10-22T09:06:03.430Z,73.05
2022-10-22T09:09:13.261Z,72.71
2022-10-22T09:12:20.210Z,72.42
2022-10-22T09:15:23.105Z,72.46
2022-10-22T09:18:50.932Z,72.39
2022-10-22T09:21:56.819Z,71.65
2022-10-22T09:25:10.119Z,71.63
2022-10-22T09:28:12.622Z,72.24
2022-10-22T09:31:15.521Z,72.44
2022-10-22T09:34:21.643Z,72.56
2022-10-22T09:37:29.239Z,72.66
2022-10-22T09:40:31.692Z,72.46
2022-10-22T09:43:36.181Z,73.01
2022-10-22T09:46:45.491Z,73.68
2022-10-22T09:49:48.211Z,73.29
2022-10-22T09:53:26.028Z,73.68
2022-10-22T09:56:40.977Z,74.08
2022-10-22T09:59:44.862Z,73.46
2022-10-22T10:02:47.623Z,73.57
2022-10-22T10:05:54.417Z,74.23
2022-10-22T10:08:57.436Z,74.56
2022-10-22T10:12:09.686Z,75.17
2022-10-22T10:15:15.096Z,76.07
2022-10-22T10:18:51.472Z,75.45
2022-10-22T10:22:15.891Z,75.95
2022-10-22T10:25:37.897Z,76.26
2022-10-22T10:28:55.866Z,77.05
2022-10-22T10:32:22.405Z,77.16
2022-10-22T10:35:28.236Z,77.20
2022-10-22T10:38:58.358Z,77.56
2022-10-22T10:42:15.966Z,76.91
2022-10-22T10:45:43.566Z,77.52
2022-10-22T10:48:56.958Z,77.88
2022-10-22T10:52:18.814Z,77.33
2022-10-22T10:55:37.411Z,77.90
2022-10-22T10:59:25.685Z,77.86
2022-10-22T11:02:28.059Z,77.50
2022-10-22T11:06:00.480Z,77.82
2022-10-22T11:09:11.688Z,78.85
2022-10-22T11:12:23.613Z,78.72
2022-10-22T11:15:37.227Z,78.94
2022-10-22T11:18:48.455Z,78.89
2022-10-22T11:22:07.428Z,79.63
2022-10-22T11:25:12.762Z,79.86
2022-10-22T11:28:21.480Z,80.37
2022-10-22T11:31:25.843Z,80.56
2022-10-22T11:35:01.813Z,80.25
2022-10-22T11:38:07.022Z,79.72
2022-10-22T11:41:14.630Z,79.93
2022-10-22T11:44:23.616Z,80.52
2022-10-22T11:47:42.854Z,79.76
2022-10-22T11:50:55.124Z,79.66
2022-10-22T11:53:58.542Z,80.39
2022-10-22T11:57:16.333Z,79.20
2022-10-22T12:00:40.256Z,80.30
2022-10-22T12:03:46.506Z,79.64
2022-10-22T12:07:02.020Z,79.81
2022-10-22T12:10:06.371Z,79.91
2022-10-22T12:13:14.458Z,79.89
2022-10-22T12:16:27.221Z,80.14
2022-10-22T12:19:43.656Z,82.63
2022-10-22T12:22:46.389Z,83.70
2022-10-22T12:25:48.844Z,83.68
2022-10-22T12:28:51.742Z,84.14
2022-10-22T12:31:55.071Z,82.49
2022-10-22T12:34:57.812Z,84.05
2022-10-22T12:38:13.938Z,84.08
2022-10-22T12:41:16.680Z,85.46
2022-10-22T12:44:19.281Z,86.83
2022-10-22T12:47:22.203Z,87.94
2022-10-22T12:50:38.299Z,89.74
2022-10-22T12:53:47.639Z,88.66
2022-10-22T12:56:50.512Z,89.08
2022-10-22T12:59:53.337Z,88.11
2022-10-22T13:02:57.661Z,87.22
2022-10-22T13:06:18.766Z,87.16
2022-10-22T13:09:25.412Z,87.89
2022-10-22T13:12:37.273Z,86.54
2022-10-22T13:15:40.071Z,87.81
2022-10-22T13:18:43.983Z,87.34
2022-10-22T13:21:48.880Z,87.05
2022-10-22T13:24:51.821Z,87.65
2022-10-22T13:27:55.372Z,89.64
2022-10-22T13:31:08.510Z,89.38
2022-10-22T13:34:17.239Z,91.25
2022-10-22T13:37:20.061Z,91.58
2022-10-22T13:40:22.574Z,92.19
2022-10-22T13:43:25.514Z,93.79
2022-10-22T13:46:29.197Z,94.03
2022-10-22T13:49:31.984Z,93.11
2022-10-22T13:52:38.736Z,95.36
2022-10-22T13:55:41.646Z,95.26
2022-10-22T13:58:45.698Z,95.04
2022-10-22T14:01:48.471Z,95.49
2022-10-22T14:04:51.694Z,96.79
2022-10-22T14:07:54.178Z,96.56
2022-10-22T14:10:57.022Z,96.66
2022-10-22T14:13:59.520Z,98.11
2022-10-22T14:17:02.478Z,97.54
2022-10-22T14:20:05.218Z,99.63
2022-10-22T14:23:20.499Z,97.65
2022-10-22T14:26:31.291Z,98.55
2022-10-22T14:29:33.984Z,98.02
2022-10-22T14:32:36.835Z,98.55
2022-10-22T14:35:39.588Z,98.94
2022-10-22T14:38:43.081Z,99.17
2022-10-22T14:41:45.845Z,99.11
2022-10-22T14:44:48.313Z,99.01
2022-10-22T14:47:51.841Z,99.63
2022-10-22T14:50:54.804Z,99.77
2022-10-22T14:53:57.577Z,100.00
2022-10-22T14:57:00.056Z,100.00
2022-10-22T15:00:04.103Z,100.00
2022-10-22T15:03:06.880Z,100.00
2022-10-22T15:06:11.312Z,100.00
2022-10-22T15:09:14.554Z,100.00
2022-10-22T15:12:17.318Z,100.00
2022-10-22T15:15:22.641Z,100.00
2022-10-22T15:18:26.368Z,100.00
2022-10-22T15:21:28.895Z,100.00
2022-10-22T15:24:32.311Z,100.00
2022-10-22T15:27:35.429Z,100.00
2022-10-22T15:30:38.450Z,100.00
2022-10-22T15:33:42.430Z,100.00
2022-10-22T15:36:45.215Z,100.00
2022-10-22T15:39:47.946Z,100.00
2022-10-22T15:42:50.778Z,100.00
2022-10-22T15:46:15.337Z,100.00
2022-10-22T15:49:18.402Z,100.00
2022-10-22T15:52:23.783Z,100.00
2022-10-22T15:55:26.736Z,100.00
2022-10-22T15:58:29.214Z,100.00
2022-10-22T16:01:34.134Z,100.00
2022-10-22T16:04:38.045Z,100.00
2022-10-22T16:07:40.819Z,100.00
2022-10-22T16:10:48.545Z,100.00
2022-10-22T16:13:56.520Z,100.00
2022-10-22T16:16:59.755Z,100.00
2022-10-22T16:20:02.976Z,100.00
2022-10-22T16:23:06.048Z,100.00
2022-10-22T16:26:08.703Z,100.00
2022-10-22T16:29:12.645Z,100.00
2022-10-22T16:32:16.503Z,100.00
2022-10-22T16:35:19.238Z,100.00
2022-10-22T16:38:21.705Z,100.00
2022-10-22T16:41:25.914Z,100.00
2022-10-22T16:44:29.322Z,100.00
2022-10-22T16:47:32.036Z,100.00
2022-10-22T16:50:34.643Z,100.00
2022-10-22T16:53:37.698Z,100.00
2022-10-22T16:56:40.227Z,100.00
2022-10-22T16:59:43.220Z,100.00
2022-10-22T17:02:45.786Z,100.00
2022-10-22T17:05:49.199Z,100.00
2022-10-22T17:08:52.114Z,100.00
2022-10-22T17:11:55.186Z,100.00
2022-10-22T17:14:57.635Z,100.00
2022-10-22T17:18:00.854Z,100.00
2022-10-22T17:21:07.942Z,100.00
2022-10-22T17:24:11.023Z,100.00
2022-10-22T17:27:14.159Z,100.00
2022-10-22T17:30:22.018Z,100.00
2022-10-22T17:33:27.648Z,100.00
2022-10-22T17:36:34.819Z,100.00
2022-10-22T17:39:38.659Z,100.00
2022-10-22T17:42:43.006Z,100.00
2022-10-22T17:45:46.006Z,100.00
2022-10-22T17:48:54.267Z,100.00
2022-10-22T17:51:57.097Z,100.00
2022-10-22T17:55:00.013Z,100.00
2022-10-22T17:58:02.751Z,100.00
2022-10-22T18:01:05.944Z,100.00
2022-10-22T18:04:10.941Z,100.00
2022-10-22T18:07:13.578Z,100.00
2022-10-22T18:10:16.448Z,100.00
2022-10-22T18:13:19.179Z,100.00
2022-10-22T18:16:22.662Z,100.00
2022-10-22T18:19:25.303Z,100.00
2022-10-22T18:22:28.486Z,100.00
2022-10-22T18:25:31.831Z,100.00
2022-10-22T18:28:34.947Z,100.00
2022-10-22T18:31:37.663Z,100.00
2022-10-22T18:34:40.550Z,100.00
2022-10-22T18:37:43.466Z,100.00
2022-10-22T18:40:46.892Z,100.00
2022-10-22T18:43:51.282Z,100.00
2022-10-22T18:46:54.221Z,100.00
2022-10-22T18:49:57.022Z,100.00
2022-10-22T18:53:00.385Z,100.00
2022-10-22T18:56:07.724Z,100.00
2022-10-22T18:59:17.436Z,100.00
2022-10-22T19:02:20.249Z,100.00
2022-10-22T19:05:23.334Z,100.00
2022-10-22T19:08:26.076Z,100.00
2022-10-22T19:11:29.045Z,100.00
2022-10-22T19:14:32.319Z,100.00
2022-10-22T19:17:35.181Z,100.00
2022-10-22T19:20:37.945Z,100.00
2022-10-22T19:23:41.228Z,100.00
2022-10-22T19:26:44.446Z,100.00
2022-10-22T19:29:49.490Z,100.00
2022-10-22T19:32:52.098Z,100.00
2022-10-22T19:35:54.946Z,100.00
2022-10-22T19:38:58.247Z,100.00
2022-10-22T19:42:01.705Z,100.00
2022-10-22T19:45:05.417Z,100.00
2022-10-22T19:48:08.234Z,100.00
2022-10-22T19:51:15.413Z,100.00
2022-10-22T19:54:21.205Z,100.00
2022-10-22T19:57:23.837Z,100.00
2022-10-22T20:00:28.414Z,100.00
2022-10-22T20:03:31.466Z,100.00
2022-10-22T20:06:33.983Z,100.00
2022-10-22T20:09:36.945Z,100.00
2022-10-22T20:12:39.654Z,100.00
2022-10-22T20:15:42.497Z,100.00
2022-10-22T20:18:45.306Z,100.00
2022-10-22T20:21:50.913Z,100.00
2022-10-22T20:24:54.484Z,100.00
2022-10-22T20:27:58.434Z,100.00
2022-10-22T20:31:01.027Z,100.00
2022-10-22T20:34:04.235Z,100.00
2022-10-22T20:37:06.689Z,100.00
2022-10-22T20:40:11.135Z,100.00
2022-10-22T20:43:13.647Z,100.00
2022-10-22T20:46:24.494Z,100.00
2022-10-22T20:49:26.970Z,100.00
2022-10-22T20:52:29.962Z,100.00
2022-10-22T20:55:32.657Z,100.00
2022-10-22T20:58:35.855Z,100.00
2022-10-22T21:01:40.273Z,100.00
2022-10-22T21:04:45.582Z,100.00
2022-10-22T21:07:48.915Z,100.00
2022-10-22T21:10:51.686Z,100.00
2022-10-22T21:13:54.196Z,100.00
2022-10-22T21:16:57.080Z,100.00
2022-10-22T21:19:59.610Z,100.00
2022-10-22T21:23:02.348Z,100.00
2022-10-22T21:26:05.580Z,100.00
2022-10-22T21:29:09.037Z,100.00
2022-10-22T21:32:11.485Z,100.00
2022-10-22T21:35:14.274Z,100.00
2022-10-22T21:38:16.781Z,100.00
2022-10-22T21:41:21.611Z,100.00
2022-10-22T21:44:24.036Z,100.00
2022-10-22T21:47:26.771Z,100.00
2022-10-22T21:50:30.049Z,100.00
2022-10-22T21:53:32.756Z,100.00
2022-10-22T21:56:36.171Z,100.00
2022-10-22T21:59:38.932Z,100.00
2022-10-22T22:02:41.526Z,100.00
2022-10-22T22:05:44.422Z,100.00
2022-10-22T22:08:47.189Z,100.00
2022-10-22T22:11:49.982Z,100.00
2022-10-22T22:14:52.465Z,100.00
2022-10-22T22:17:55.226Z,100.00
2022-10-22T22:20:58.607Z,100.00
2022-10-22T22:24:01.519Z,100.00
2022-10-22T22:27:04.175Z,100.00
2022-10-22T22:30:07.685Z,100.00
2022-10-22T22:33:10.483Z,100.00
2022-10-22T22:36:13.291Z,100.00
2022-10-22T22:39:22.578Z,100.00
2022-10-22T22:42:25.306Z,100.00
2022-10-22T22:45:27.779Z,100.00
2022-10-22T22:48:30.756Z,100.00
2022-10-22T22:51:33.272Z,100.00
2022-10-22T22:54:36.004Z,100.00
2022-10-22T22:57:38.521Z,100.00
2022-10-22T23:03:58.761Z,100.00
2022-10-22T23:07:01.506Z,100.00
2022-10-22T23:10:04.135Z,100.00
2022-10-22T23:13:06.873Z,100.00
2022-10-22T23:16:13.447Z,100.00
2022-10-22T23:19:18.655Z,100.00
2022-10-22T23:22:21.156Z,100.00
2022-10-22T23:25:23.942Z,100.00
2022-10-22T23:28:26.665Z,100.00
2022-10-22T23:31:29.852Z,100.00
2022-10-22T23:34:32.723Z,100.00
2022-10-22T23:37:35.512Z,100.00
2022-10-22T23:40:38.375Z,100.00
2022-10-22T23:43:41.173Z,100.00
2022-10-22T23:46:43.856Z,100.00
2022-10-22T23:49:46.824Z,100.00
2022-10-22T23:52:49.314Z,100.00
2022-10-22T23:55:52.090Z,100.00
2022-10-22T23:58:54.845Z,100.00
